TAF and METAR

No METAR available for Bartolomeu Lysandro Airport

TAF for Bartolomeu Lysandro Airport

TAF SBCP 310900Z 3112/3124 32007KT CAVOK TN21/3112Z TX26/3117Z RMK PEI
Report created 31. mai 11:00

between 31. mai 14:00 - 31. mai 02:00

wind 7 knots from NW (320°) Clear sky Min temperature 21° expected today at around 14 o'clock